Escobar, Argentina
Current Conditions -  °F | °C
As of 8:00 PM on Monday 24 Nov 2014 (Local Time) from SADF Reporting Station
Few Clouds Few Clouds  
Wind Chill: 72°   Ceiling: Unl
Heat Index: 72°   Visibility: 6mi
Dew Point: 64°   Wind: 2mph
Humidity: 78%   Direction: 180°S
Pressure: 29.83"   Gusts: NA
Location:  34.35°S, 58.78°W
Report Text: SADF 242300Z 18002KT 9999 FEW030TCU FEW100 22/18 Q1010
Loading
Personal Weather Stations






























Interactive Weather Map New forecast layout! Learn more

10-Day Weather Forecast

Advertisements
Track Severe Weather on mobile